WRT weather

Warton Airport
Warton, England, United Kingdom

Public forecast

Using degrees Celsius for public forecast. Weather courtesy of forecast.io.

METAR (pilot weather report)

Retrieved 2019/04/25 08:20 UTC (0 seconds ago):

EGNO 250820Z 11010KT 9999 BKN024 11/09 Q0994

TAF (pilot weather forecast)

Forecast is more than 12 hours old.

Closest forecast is Blackpool International Airport, 5.4 nm (10.0 km) WNW. Retrieved 2016/01/23 12:00 UTC (3 years ago):

TAF EGNH 231059Z 2312/2321 14012KT 9999 FEW030 BECMG 2316/2319 BKN014 TEMPO 2316/2321 6000 RA PROB30 2318/2321 BKN008